Bartlesville, OK (74006)

11:22 PM CDT on April 30, 2017 (GMT -0500)
Woodland Park | | Change Station
Active Advisory: Flood Warning

Elev 728 ft 36.74 °N, 95.94 °W | Updated 5 seconds ago

Overcast
Overcast
45.0 °F
Feels Like 45 °F
N
1.1
Wind Variable Wind from NNW
Gusts 4.7 mph

Today
High -- | Low -- °F
--% Chance of Precip.
Yesterday
High -- | Low -- °F
Precip. -- in
Pressure 29.61 in
Visibility 10.0 miles
Clouds Mostly Cloudy 1500 ft
Overcast 2500 ft
Windchill 45 °F
Dew Point 42 °F
Humidity 88%
Rainfall 0.05 in
Snow Depth Not available.
6:30 AM 8:11 PM
Waxing Crescent, 29% visible
SPECI KBVO 010417Z AUTO 25010G17KT 10SM BKN015 OVC025 07/04 A2961 RMK AO2 T00720044 TSNO
Pressure 29.61 in
Visibility 10.0 miles
Clouds Mostly Cloudy 1500 ft
Overcast 2500 ft
Windchill 45 °F
Dew Point 42 °F
Humidity 88%
Rainfall 0.05 in
Snow Depth Not available.
6:30 AM 8:11 PM
Waxing Crescent, 29% visible
SPECI KBVO 010417Z AUTO 25010G17KT 10SM BKN015 OVC025 07/04 A2961 RMK AO2 T00720044 TSNO

Get Your Daily Forecast Email!

Thanks for signing up!

Be on the lookout for a verification email in your inbox.

You'll start receiving severe weather alerts in your inbox..

×

10-Day Weather Forecast

Almanac

Astronomy

Apr. 30, 2017 Rise Set
Actual Time
Civil Twilight
Nautical Twilight
Astronomical Twilight
Moon
Length of Visible Light
Length of Day
Tomorrow will be .
, % of the Moon is Illuminated

Today's Extremes

State Highs State Lows

Community

WunderPhotos

WunderBlog® & News

Nearby

Air Quality

  Air Quality AQ Index Pollutant
Not available.

Snow Depth

Station Depth Elevation

Earthquake Activity

City Distance Mag. Time & Date
Minimum magnitude displayed is 2.5.

Coastal Water Temperatures

Place Temperature

Stations

Nearby Weather Stations

Station Location Temp. Windchill Dew Point Humidity Wind Precip. Elev Updated Type
                   

Watches & Warnings

Flood Warning
Issued: 8:00 PM CDT Apr. 30, 2017 – National Weather Service

... Flood Warning extended until Monday afternoon...
the Flood Warning continues for
the Caney river near Ramona.
* Until Monday afternoon, or until the warning is cancelled.
* At 7:00 PM Sunday, the stage was 26.57 feet.
* Flood stage is 26.0 feet.
* Minor flooding is occurring but the river is falling.
* Forecast... the Caney river near Ramona will continue falling to
below flood stage by Monday morning.
* Impact... at 26.0 feet, minor flooding occurs. Farmlands and rural
roads are affected.


Lat... Lon 3664 9580 3637 9576 3637 9584 3647 9593 3664 9593